Terminal Aerodrome Forecast
Issued by NWS Houston/Galveston TX

Home | Current Version | Previous Version | Text Only | Print | Product List | Glossary On
Versions: 1 2 3 4 5 6 7 8 9 10 11 12 13 14 15 16 17 18 19 20 21 22 23 24 25 26 27 28 29 30 31 32 33 34 35 36 37
000
FTUS44 KHGX 240527
TAFHOU
TAF
KHOU 240527Z 2406/2506 16008KT 6SM BR SCT008 OVC012
     FM240900 15008KT 6SM BR VCSH SCT004 OVC008
     FM241600 17012KT P6SM SCT008 OVC015
     FM241900 19015G23KT P6SM BKN025
     FM242300 20010KT P6SM -SHRA SCT010 OVC020
     FM250500 25007KT P6SM BKN008 OVC015=

USA.gov is the U.S. government's official web portal to all federal, state and local government web resources and services.